sensor_id;sensor_type;location;lat;lon;timestamp;temperature;humidity
11647;DHT22;5880;52.342;9.662;2024-01-16T00:01:15;4.60;73.10
11647;DHT22;5880;52.342;9.662;2024-01-16T00:03:41;4.50;72.90
11647;DHT22;5880;52.342;9.662;2024-01-16T00:06:07;4.60;73.10
11647;DHT22;5880;52.342;9.662;2024-01-16T00:08:33;4.60;73.00
11647;DHT22;5880;52.342;9.662;2024-01-16T00:10:58;4.50;72.90
11647;DHT22;5880;52.342;9.662;2024-01-16T00:13:24;4.50;73.00
11647;DHT22;5880;52.342;9.662;2024-01-16T00:15:50;4.50;72.90
11647;DHT22;5880;52.342;9.662;2024-01-16T00:18:15;4.50;73.10
11647;DHT22;5880;52.342;9.662;2024-01-16T00:20:41;4.50;72.80
11647;DHT22;5880;52.342;9.662;2024-01-16T00:23:07;4.50;73.00
11647;DHT22;5880;52.342;9.662;2024-01-16T00:25:33;4.50;73.20
11647;DHT22;5880;52.342;9.662;2024-01-16T00:28:01;4.50;73.00
11647;DHT22;5880;52.342;9.662;2024-01-16T00:30:27;4.50;73.10
11647;DHT22;5880;52.342;9.662;2024-01-16T00:32:53;4.50;73.20
11647;DHT22;5880;52.342;9.662;2024-01-16T00:35:19;4.50;72.90
11647;DHT22;5880;52.342;9.662;2024-01-16T00:37:44;4.50;73.10
11647;DHT22;5880;52.342;9.662;2024-01-16T00:40:10;4.50;73.00
11647;DHT22;5880;52.342;9.662;2024-01-16T00:42:36;4.50;72.90
11647;DHT22;5880;52.342;9.662;2024-01-16T00:45:02;4.50;73.00
11647;DHT22;5880;52.342;9.662;2024-01-16T00:47:28;4.50;72.90
11647;DHT22;5880;52.342;9.662;2024-01-16T00:49:53;4.50;73.00
11647;DHT22;5880;52.342;9.662;2024-01-16T00:52:19;4.50;73.10
11647;DHT22;5880;52.342;9.662;2024-01-16T00:54:45;4.60;73.00
11647;DHT22;5880;52.342;9.662;2024-01-16T00:57:10;4.50;73.00
11647;DHT22;5880;52.342;9.662;2024-01-16T00:59:37;4.50;73.20
11647;DHT22;5880;52.342;9.662;2024-01-16T01:02:03;4.50;73.20
11647;DHT22;5880;52.342;9.662;2024-01-16T01:04:29;4.50;73.10
11647;DHT22;5880;52.342;9.662;2024-01-16T01:06:55;4.60;73.10
11647;DHT22;5880;52.342;9.662;2024-01-16T01:09:21;4.50;72.90
11647;DHT22;5880;52.342;9.662;2024-01-16T01:11:46;4.50;73.00
11647;DHT22;5880;52.342;9.662;2024-01-16T01:14:12;4.50;73.00
11647;DHT22;5880;52.342;9.662;2024-01-16T01:16:38;4.50;73.00
11647;DHT22;5880;52.342;9.662;2024-01-16T01:19:03;4.50;73.00
11647;DHT22;5880;52.342;9.662;2024-01-16T01:21:29;4.60;73.00
11647;DHT22;5880;52.342;9.662;2024-01-16T01:23:55;4.60;72.90
11647;DHT22;5880;52.342;9.662;2024-01-16T01:26:21;4.50;72.90
11647;DHT22;5880;52.342;9.662;2024-01-16T01:28:46;4.60;72.90
11647;DHT22;5880;52.342;9.662;2024-01-16T01:31:12;4.70;73.10
11647;DHT22;5880;52.342;9.662;2024-01-16T01:33:39;4.50;73.00
11647;DHT22;5880;52.342;9.662;2024-01-16T01:36:05;4.50;73.00
11647;DHT22;5880;52.342;9.662;2024-01-16T01:38:31;4.50;72.80
11647;DHT22;5880;52.342;9.662;2024-01-16T01:40:57;4.50;72.60
11647;DHT22;5880;52.342;9.662;2024-01-16T01:43:24;4.60;72.70
11647;DHT22;5880;52.342;9.662;2024-01-16T01:46:11;4.50;72.30
11647;DHT22;5880;52.342;9.662;2024-01-16T01:48:40;4.50;72.00
11647;DHT22;5880;52.342;9.662;2024-01-16T01:51:12;4.50;72.50
11647;DHT22;5880;52.342;9.662;2024-01-16T01:53:39;4.40;72.60
11647;DHT22;5880;52.342;9.662;2024-01-16T01:56:09;4.40;72.60
11647;DHT22;5880;52.342;9.662;2024-01-16T01:58:39;4.40;72.80
11647;DHT22;5880;52.342;9.662;2024-01-16T02:01:08;4.40;72.60
11647;DHT22;5880;52.342;9.662;2024-01-16T02:03:45;4.40;72.60
11647;DHT22;5880;52.342;9.662;2024-01-16T02:06:12;4.40;72.60
11647;DHT22;5880;52.342;9.662;2024-01-16T02:08:42;4.30;72.90
11647;DHT22;5880;52.342;9.662;2024-01-16T02:11:08;4.40;72.80
11647;DHT22;5880;52.342;9.662;2024-01-16T02:13:35;4.40;72.80
11647;DHT22;5880;52.342;9.662;2024-01-16T02:16:01;4.40;72.80
11647;DHT22;5880;52.342;9.662;2024-01-16T02:18:28;4.40;72.70
11647;DHT22;5880;52.342;9.662;2024-01-16T02:20:58;4.40;72.90
11647;DHT22;5880;52.342;9.662;2024-01-16T02:23:27;4.40;72.90
11647;DHT22;5880;52.342;9.662;2024-01-16T02:25:53;4.40;72.90
11647;DHT22;5880;52.342;9.662;2024-01-16T02:28:19;4.40;72.50
11647;DHT22;5880;52.342;9.662;2024-01-16T02:30:45;4.40;72.60
11647;DHT22;5880;52.342;9.662;2024-01-16T02:33:11;4.40;72.20
11647;DHT22;5880;52.342;9.662;2024-01-16T02:35:37;4.40;72.50
11647;DHT22;5880;52.342;9.662;2024-01-16T02:38:03;4.40;72.60
11647;DHT22;5880;52.342;9.662;2024-01-16T02:40:29;4.40;72.60
11647;DHT22;5880;52.342;9.662;2024-01-16T02:42:55;4.30;72.60
11647;DHT22;5880;52.342;9.662;2024-01-16T02:45:21;4.30;72.40
11647;DHT22;5880;52.342;9.662;2024-01-16T02:47:46;4.30;72.10
11647;DHT22;5880;52.342;9.662;2024-01-16T02:50:12;4.30;72.10
11647;DHT22;5880;52.342;9.662;2024-01-16T02:52:38;4.30;72.00
11647;DHT22;5880;52.342;9.662;2024-01-16T02:55:05;4.20;72.00
11647;DHT22;5880;52.342;9.662;2024-01-16T02:57:31;4.20;71.80
11647;DHT22;5880;52.342;9.662;2024-01-16T02:59:56;4.20;71.90
11647;DHT22;5880;52.342;9.662;2024-01-16T03:02:22;4.10;72.00
11647;DHT22;5880;52.342;9.662;2024-01-16T03:04:49;4.10;71.90
11647;DHT22;5880;52.342;9.662;2024-01-16T03:07:15;4.10;71.90
11647;DHT22;5880;52.342;9.662;2024-01-16T03:09:41;4.10;72.10
11647;DHT22;5880;52.342;9.662;2024-01-16T03:12:07;4.00;71.40
11647;DHT22;5880;52.342;9.662;2024-01-16T03:14:32;4.00;71.60
11647;DHT22;5880;52.342;9.662;2024-01-16T03:17:02;4.00;71.70
11647;DHT22;5880;52.342;9.662;2024-01-16T03:19:28;4.00;71.80
11647;DHT22;5880;52.342;9.662;2024-01-16T03:21:54;3.90;71.30
11647;DHT22;5880;52.342;9.662;2024-01-16T03:24:20;3.90;71.80
11647;DHT22;5880;52.342;9.662;2024-01-16T03:26:46;3.80;71.80
11647;DHT22;5880;52.342;9.662;2024-01-16T03:29:11;3.80;71.70
11647;DHT22;5880;52.342;9.662;2024-01-16T03:31:37;3.80;71.70
11647;DHT22;5880;52.342;9.662;2024-01-16T03:34:03;3.80;71.80
11647;DHT22;5880;52.342;9.662;2024-01-16T03:36:28;3.80;71.90
11647;DHT22;5880;52.342;9.662;2024-01-16T03:38:54;3.70;72.00
11647;DHT22;5880;52.342;9.662;2024-01-16T03:41:19;3.70;71.70
11647;DHT22;5880;52.342;9.662;2024-01-16T03:43:45;3.70;71.90
11647;DHT22;5880;52.342;9.662;2024-01-16T03:46:11;3.70;72.00
11647;DHT22;5880;52.342;9.662;2024-01-16T03:48:37;3.70;72.00
11647;DHT22;5880;52.342;9.662;2024-01-16T03:51:03;3.60;71.70
11647;DHT22;5880;52.342;9.662;2024-01-16T03:53:28;3.60;71.90
11647;DHT22;5880;52.342;9.662;2024-01-16T03:55:54;3.60;72.00
11647;DHT22;5880;52.342;9.662;2024-01-16T03:58:20;3.60;72.00
11647;DHT22;5880;52.342;9.662;2024-01-16T04:00:46;3.60;72.00
11647;DHT22;5880;52.342;9.662;2024-01-16T04:03:12;3.70;72.10
11647;DHT22;5880;52.342;9.662;2024-01-16T04:05:38;3.60;71.90
11647;DHT22;5880;52.342;9.662;2024-01-16T04:08:04;3.50;71.90
11647;DHT22;5880;52.342;9.662;2024-01-16T04:10:30;3.50;72.00
11647;DHT22;5880;52.342;9.662;2024-01-16T04:12:55;3.50;72.10
11647;DHT22;5880;52.342;9.662;2024-01-16T04:15:21;3.50;72.20
11647;DHT22;5880;52.342;9.662;2024-01-16T04:17:47;3.50;72.30
11647;DHT22;5880;52.342;9.662;2024-01-16T04:20:13;3.50;72.30
11647;DHT22;5880;52.342;9.662;2024-01-16T04:22:39;3.60;72.10
11647;DHT22;5880;52.342;9.662;2024-01-16T04:25:05;3.50;72.20
11647;DHT22;5880;52.342;9.662;2024-01-16T04:27:31;3.50;72.40
11647;DHT22;5880;52.342;9.662;2024-01-16T04:29:57;3.50;72.60
11647;DHT22;5880;52.342;9.662;2024-01-16T04:32:23;3.50;72.60
11647;DHT22;5880;52.342;9.662;2024-01-16T04:34:49;3.50;72.50
11647;DHT22;5880;52.342;9.662;2024-01-16T04:37:15;3.50;72.50
11647;DHT22;5880;52.342;9.662;2024-01-16T04:39:40;3.60;72.60
11647;DHT22;5880;52.342;9.662;2024-01-16T04:42:06;3.60;72.60
11647;DHT22;5880;52.342;9.662;2024-01-16T04:44:32;3.60;72.50
11647;DHT22;5880;52.342;9.662;2024-01-16T04:46:57;3.60;72.50
11647;DHT22;5880;52.342;9.662;2024-01-16T04:49:23;3.60;72.40
11647;DHT22;5880;52.342;9.662;2024-01-16T04:51:49;3.70;72.60
11647;DHT22;5880;52.342;9.662;2024-01-16T04:54:14;3.70;72.50
11647;DHT22;5880;52.342;9.662;2024-01-16T04:56:41;3.70;72.40
11647;DHT22;5880;52.342;9.662;2024-01-16T04:59:06;3.70;72.30
11647;DHT22;5880;52.342;9.662;2024-01-16T05:01:32;3.70;71.80
11647;DHT22;5880;52.342;9.662;2024-01-16T05:03:58;3.70;72.00
11647;DHT22;5880;52.342;9.662;2024-01-16T05:06:24;3.70;71.90
11647;DHT22;5880;52.342;9.662;2024-01-16T05:08:49;3.70;71.90
11647;DHT22;5880;52.342;9.662;2024-01-16T05:11:15;3.70;71.90
11647;DHT22;5880;52.342;9.662;2024-01-16T05:13:41;3.70;72.00
11647;DHT22;5880;52.342;9.662;2024-01-16T05:16:06;3.70;71.90
11647;DHT22;5880;52.342;9.662;2024-01-16T05:18:33;3.70;72.00
11647;DHT22;5880;52.342;9.662;2024-01-16T05:20:59;3.70;71.70
11647;DHT22;5880;52.342;9.662;2024-01-16T05:23:25;3.60;71.80
11647;DHT22;5880;52.342;9.662;2024-01-16T05:25:50;3.60;71.70
11647;DHT22;5880;52.342;9.662;2024-01-16T05:28:16;3.70;71.80
11647;DHT22;5880;52.342;9.662;2024-01-16T05:30:42;3.60;71.70
11647;DHT22;5880;52.342;9.662;2024-01-16T05:33:08;3.60;71.70
11647;DHT22;5880;52.342;9.662;2024-01-16T05:35:34;3.60;71.60
11647;DHT22;5880;52.342;9.662;2024-01-16T05:37:59;3.60;71.60
11647;DHT22;5880;52.342;9.662;2024-01-16T05:40:25;3.60;71.60
11647;DHT22;5880;52.342;9.662;2024-01-16T05:42:51;3.50;71.70
11647;DHT22;5880;52.342;9.662;2024-01-16T05:45:17;3.60;71.80
11647;DHT22;5880;52.342;9.662;2024-01-16T05:47:43;3.50;71.80
11647;DHT22;5880;52.342;9.662;2024-01-16T05:50:09;3.60;71.90
11647;DHT22;5880;52.342;9.662;2024-01-16T05:52:35;3.60;71.90
11647;DHT22;5880;52.342;9.662;2024-01-16T05:55:02;3.60;72.00
11647;DHT22;5880;52.342;9.662;2024-01-16T05:57:29;3.50;72.00
11647;DHT22;5880;52.342;9.662;2024-01-16T05:59:59;3.50;71.90
11647;DHT22;5880;52.342;9.662;2024-01-16T06:02:25;3.50;71.40
11647;DHT22;5880;52.342;9.662;2024-01-16T06:04:51;3.50;72.00
11647;DHT22;5880;52.342;9.662;2024-01-16T06:07:16;3.60;72.10
11647;DHT22;5880;52.342;9.662;2024-01-16T06:09:42;3.50;72.10
11647;DHT22;5880;52.342;9.662;2024-01-16T06:12:08;3.50;72.20
11647;DHT22;5880;52.342;9.662;2024-01-16T06:14:34;3.60;72.20
11647;DHT22;5880;52.342;9.662;2024-01-16T06:17:00;3.60;72.10
11647;DHT22;5880;52.342;9.662;2024-01-16T06:19:26;3.60;72.00
11647;DHT22;5880;52.342;9.662;2024-01-16T06:21:52;3.60;72.10
11647;DHT22;5880;52.342;9.662;2024-01-16T06:24:18;3.60;72.30
11647;DHT22;5880;52.342;9.662;2024-01-16T06:26:44;3.60;72.40
11647;DHT22;5880;52.342;9.662;2024-01-16T06:29:09;3.70;72.50
11647;DHT22;5880;52.342;9.662;2024-01-16T06:31:35;3.70;72.50
11647;DHT22;5880;52.342;9.662;2024-01-16T06:34:01;3.70;72.30
11647;DHT22;5880;52.342;9.662;2024-01-16T06:36:26;3.70;72.40
11647;DHT22;5880;52.342;9.662;2024-01-16T06:38:52;3.70;72.50
11647;DHT22;5880;52.342;9.662;2024-01-16T06:41:18;3.80;72.50
11647;DHT22;5880;52.342;9.662;2024-01-16T06:43:44;3.80;72.60
11647;DHT22;5880;52.342;9.662;2024-01-16T06:46:10;3.80;72.50
11647;DHT22;5880;52.342;9.662;2024-01-16T06:48:36;3.80;72.40
11647;DHT22;5880;52.342;9.662;2024-01-16T06:51:03;3.80;72.50
11647;DHT22;5880;52.342;9.662;2024-01-16T06:53:30;3.90;72.60
11647;DHT22;5880;52.342;9.662;2024-01-16T06:55:55;3.90;72.50
11647;DHT22;5880;52.342;9.662;2024-01-16T06:58:21;3.80;72.20
11647;DHT22;5880;52.342;9.662;2024-01-16T07:00:47;3.90;71.90
11647;DHT22;5880;52.342;9.662;2024-01-16T07:03:13;3.80;71.80
11647;DHT22;5880;52.342;9.662;2024-01-16T07:05:40;3.90;71.80
11647;DHT22;5880;52.342;9.662;2024-01-16T07:08:09;3.80;71.70
11647;DHT22;5880;52.342;9.662;2024-01-16T07:10:35;3.80;71.60
11647;DHT22;5880;52.342;9.662;2024-01-16T07:13:01;3.80;71.60
11647;DHT22;5880;52.342;9.662;2024-01-16T07:15:28;3.80;71.70
11647;DHT22;5880;52.342;9.662;2024-01-16T07:17:53;3.70;71.70
11647;DHT22;5880;52.342;9.662;2024-01-16T07:20:19;3.70;72.40
11647;DHT22;5880;52.342;9.662;2024-01-16T07:22:45;3.70;71.60
11647;DHT22;5880;52.342;9.662;2024-01-16T07:25:11;3.70;71.70
11647;DHT22;5880;52.342;9.662;2024-01-16T07:27:37;3.70;71.80
11647;DHT22;5880;52.342;9.662;2024-01-16T07:30:06;3.60;72.50
11647;DHT22;5880;52.342;9.662;2024-01-16T07:32:33;3.60;71.80
11647;DHT22;5880;52.342;9.662;2024-01-16T07:34:59;3.60;71.90
11647;DHT22;5880;52.342;9.662;2024-01-16T07:37:24;3.60;71.90
11647;DHT22;5880;52.342;9.662;2024-01-16T07:39:50;3.60;71.90
11647;DHT22;5880;52.342;9.662;2024-01-16T07:42:16;3.60;71.90
11647;DHT22;5880;52.342;9.662;2024-01-16T07:44:41;3.60;71.90
11647;DHT22;5880;52.342;9.662;2024-01-16T07:47:07;3.60;72.00
11647;DHT22;5880;52.342;9.662;2024-01-16T07:49:33;3.60;72.00
11647;DHT22;5880;52.342;9.662;2024-01-16T07:51:59;3.60;72.20
11647;DHT22;5880;52.342;9.662;2024-01-16T07:54:25;3.60;72.20
11647;DHT22;5880;52.342;9.662;2024-01-16T07:56:52;3.60;72.20
11647;DHT22;5880;52.342;9.662;2024-01-16T07:59:18;3.60;72.20
11647;DHT22;5880;52.342;9.662;2024-01-16T08:01:43;3.60;72.10
11647;DHT22;5880;52.342;9.662;2024-01-16T08:04:09;3.60;72.20
11647;DHT22;5880;52.342;9.662;2024-01-16T08:06:35;3.60;72.40
11647;DHT22;5880;52.342;9.662;2024-01-16T08:09:01;3.70;72.50
11647;DHT22;5880;52.342;9.662;2024-01-16T08:11:26;3.70;72.50
11647;DHT22;5880;52.342;9.662;2024-01-16T08:13:52;3.70;72.50
11647;DHT22;5880;52.342;9.662;2024-01-16T08:16:18;3.70;72.50
11647;DHT22;5880;52.342;9.662;2024-01-16T08:18:43;3.70;72.50
11647;DHT22;5880;52.342;9.662;2024-01-16T08:21:09;3.70;72.60
11647;DHT22;5880;52.342;9.662;2024-01-16T08:23:34;3.70;72.60
11647;DHT22;5880;52.342;9.662;2024-01-16T08:26:00;3.80;72.60
11647;DHT22;5880;52.342;9.662;2024-01-16T08:28:26;3.80;72.50
11647;DHT22;5880;52.342;9.662;2024-01-16T08:30:52;3.80;72.60
11647;DHT22;5880;52.342;9.662;2024-01-16T08:33:18;3.80;72.70
11647;DHT22;5880;52.342;9.662;2024-01-16T08:35:44;3.90;72.70
11647;DHT22;5880;52.342;9.662;2024-01-16T08:38:10;3.90;72.70
11647;DHT22;5880;52.342;9.662;2024-01-16T08:40:36;3.90;72.60
11647;DHT22;5880;52.342;9.662;2024-01-16T08:43:01;3.90;72.50
11647;DHT22;5880;52.342;9.662;2024-01-16T08:45:28;3.90;72.60
11647;DHT22;5880;52.342;9.662;2024-01-16T08:47:54;3.90;72.70
11647;DHT22;5880;52.342;9.662;2024-01-16T08:50:20;4.00;72.60
11647;DHT22;5880;52.342;9.662;2024-01-16T08:52:46;4.00;72.70
11647;DHT22;5880;52.342;9.662;2024-01-16T08:55:12;4.00;72.80
11647;DHT22;5880;52.342;9.662;2024-01-16T08:57:37;4.10;72.80
11647;DHT22;5880;52.342;9.662;2024-01-16T09:00:05;4.10;72.80
11647;DHT22;5880;52.342;9.662;2024-01-16T09:02:31;4.10;72.80
11647;DHT22;5880;52.342;9.662;2024-01-16T09:04:57;4.10;72.80
11647;DHT22;5880;52.342;9.662;2024-01-16T09:07:24;4.20;72.60
11647;DHT22;5880;52.342;9.662;2024-01-16T09:09:50;4.20;72.50
11647;DHT22;5880;52.342;9.662;2024-01-16T09:12:16;4.20;72.60
11647;DHT22;5880;52.342;9.662;2024-01-16T09:14:41;4.20;72.50
11647;DHT22;5880;52.342;9.662;2024-01-16T09:17:07;4.20;72.60
11647;DHT22;5880;52.342;9.662;2024-01-16T09:19:33;4.20;72.70
11647;DHT22;5880;52.342;9.662;2024-01-16T09:21:58;4.30;72.50
11647;DHT22;5880;52.342;9.662;2024-01-16T09:24:24;4.30;72.70
11647;DHT22;5880;52.342;9.662;2024-01-16T09:26:49;4.30;72.80
11647;DHT22;5880;52.342;9.662;2024-01-16T09:29:15;4.30;72.90
11647;DHT22;5880;52.342;9.662;2024-01-16T09:31:41;4.40;72.90
11647;DHT22;5880;52.342;9.662;2024-01-16T09:34:07;4.40;72.90
11647;DHT22;5880;52.342;9.662;2024-01-16T09:36:33;4.40;72.30
11647;DHT22;5880;52.342;9.662;2024-01-16T09:39:04;4.50;72.70
11647;DHT22;5880;52.342;9.662;2024-01-16T09:41:34;4.50;72.30
11647;DHT22;5880;52.342;9.662;2024-01-16T09:44:00;4.50;71.90
11647;DHT22;5880;52.342;9.662;2024-01-16T09:46:26;4.50;72.40
11647;DHT22;5880;52.342;9.662;2024-01-16T09:48:55;4.50;72.60
11647;DHT22;5880;52.342;9.662;2024-01-16T09:51:21;4.60;72.80
11647;DHT22;5880;52.342;9.662;2024-01-16T09:53:47;4.60;72.50
11647;DHT22;5880;52.342;9.662;2024-01-16T09:56:17;4.60;72.30
11647;DHT22;5880;52.342;9.662;2024-01-16T09:58:58;4.70;72.10
11647;DHT22;5880;52.342;9.662;2024-01-16T10:01:30;4.70;72.60
11647;DHT22;5880;52.342;9.662;2024-01-16T10:03:56;4.80;72.80
11647;DHT22;5880;52.342;9.662;2024-01-16T10:06:23;4.80;72.80
11647;DHT22;5880;52.342;9.662;2024-01-16T10:08:49;4.80;72.90
11647;DHT22;5880;52.342;9.662;2024-01-16T10:11:15;4.90;73.00
11647;DHT22;5880;52.342;9.662;2024-01-16T10:13:40;4.90;71.90
11647;DHT22;5880;52.342;9.662;2024-01-16T10:16:06;5.00;72.70
11647;DHT22;5880;52.342;9.662;2024-01-16T10:18:32;5.00;72.30
11647;DHT22;5880;52.342;9.662;2024-01-16T10:20:59;5.10;72.90
11647;DHT22;5880;52.342;9.662;2024-01-16T10:23:26;5.20;73.00
11647;DHT22;5880;52.342;9.662;2024-01-16T10:28:33;5.20;72.00
11647;DHT22;5880;52.342;9.662;2024-01-16T10:31:13;5.30;72.60
11647;DHT22;5880;52.342;9.662;2024-01-16T10:33:41;5.30;72.10
11647;DHT22;5880;52.342;9.662;2024-01-16T10:36:12;5.30;72.60
11647;DHT22;5880;52.342;9.662;2024-01-16T10:38:42;5.40;71.90
11647;DHT22;5880;52.342;9.662;2024-01-16T10:41:16;5.40;72.00
11647;DHT22;5880;52.342;9.662;2024-01-16T10:43:43;5.40;72.00
11647;DHT22;5880;52.342;9.662;2024-01-16T10:46:14;5.40;72.30
11647;DHT22;5880;52.342;9.662;2024-01-16T10:48:43;5.50;72.40
11647;DHT22;5880;52.342;9.662;2024-01-16T10:51:11;5.40;72.10
11647;DHT22;5880;52.342;9.662;2024-01-16T10:53:43;5.50;72.00
11647;DHT22;5880;52.342;9.662;2024-01-16T10:56:12;5.40;71.70
11647;DHT22;5880;52.342;9.662;2024-01-16T10:58:42;5.50;71.60
11647;DHT22;5880;52.342;9.662;2024-01-16T11:01:14;5.50;71.60
11647;DHT22;5880;52.342;9.662;2024-01-16T11:03:48;5.50;71.90
11647;DHT22;5880;52.342;9.662;2024-01-16T11:06:16;5.60;71.50
11647;DHT22;5880;52.342;9.662;2024-01-16T11:08:46;5.50;72.10
11647;DHT22;5880;52.342;9.662;2024-01-16T11:11:13;5.60;72.30
11647;DHT22;5880;52.342;9.662;2024-01-16T11:13:40;5.60;72.20
11647;DHT22;5880;52.342;9.662;2024-01-16T11:16:11;5.60;72.20
11647;DHT22;5880;52.342;9.662;2024-01-16T11:18:37;5.80;71.80
11647;DHT22;5880;52.342;9.662;2024-01-16T11:21:10;5.60;71.60
11647;DHT22;5880;52.342;9.662;2024-01-16T11:23:39;5.70;72.10
11647;DHT22;5880;52.342;9.662;2024-01-16T11:28:55;5.80;70.10
11647;DHT22;5880;52.342;9.662;2024-01-16T11:31:35;5.80;71.30
11647;DHT22;5880;52.342;9.662;2024-01-16T11:34:02;5.80;71.30
11647;DHT22;5880;52.342;9.662;2024-01-16T11:36:50;5.80;71.10
11647;DHT22;5880;52.342;9.662;2024-01-16T11:39:23;5.90;70.70
11647;DHT22;5880;52.342;9.662;2024-01-16T11:41:54;5.90;71.30
11647;DHT22;5880;52.342;9.662;2024-01-16T11:44:46;5.80;71.40
11647;DHT22;5880;52.342;9.662;2024-01-16T11:47:17;5.90;70.40
11647;DHT22;5880;52.342;9.662;2024-01-16T11:49:44;5.90;70.80
11647;DHT22;5880;52.342;9.662;2024-01-16T11:52:11;5.90;71.40
11647;DHT22;5880;52.342;9.662;2024-01-16T11:54:38;5.80;71.40
11647;DHT22;5880;52.342;9.662;2024-01-16T12:00:04;5.80;71.10
11647;DHT22;5880;52.342;9.662;2024-01-16T12:02:53;5.80;69.50
11647;DHT22;5880;52.342;9.662;2024-01-16T12:05:21;5.80;70.40
11647;DHT22;5880;52.342;9.662;2024-01-16T12:07:52;5.80;70.80
11647;DHT22;5880;52.342;9.662;2024-01-16T12:10:23;5.90;70.50
11647;DHT22;5880;52.342;9.662;2024-01-16T12:12:51;5.70;70.40
11647;DHT22;5880;52.342;9.662;2024-01-16T12:15:23;5.70;70.40
11647;DHT22;5880;52.342;9.662;2024-01-16T12:17:58;5.60;70.00
11647;DHT22;5880;52.342;9.662;2024-01-16T12:20:27;5.60;69.90
11647;DHT22;5880;52.342;9.662;2024-01-16T12:23:03;5.60;70.70
11647;DHT22;5880;52.342;9.662;2024-01-16T12:25:31;5.60;70.90
11647;DHT22;5880;52.342;9.662;2024-01-16T12:28:07;5.60;71.00
11647;DHT22;5880;52.342;9.662;2024-01-16T12:30:36;5.60;71.00
11647;DHT22;5880;52.342;9.662;2024-01-16T12:33:03;5.50;71.10
11647;DHT22;5880;52.342;9.662;2024-01-16T12:38:09;5.50;70.50
11647;DHT22;5880;52.342;9.662;2024-01-16T12:40:47;5.50;71.10
11647;DHT22;5880;52.342;9.662;2024-01-16T12:43:16;5.50;70.90
11647;DHT22;5880;52.342;9.662;2024-01-16T12:45:44;5.50;71.60
11647;DHT22;5880;52.342;9.662;2024-01-16T12:48:10;5.50;71.20
11647;DHT22;5880;52.342;9.662;2024-01-16T12:50:37;5.50;71.30
11647;DHT22;5880;52.342;9.662;2024-01-16T12:53:10;5.50;71.20
11647;DHT22;5880;52.342;9.662;2024-01-16T12:55:38;5.50;71.10
11647;DHT22;5880;52.342;9.662;2024-01-16T12:58:21;5.50;71.20
11647;DHT22;5880;52.342;9.662;2024-01-16T13:00:52;5.50;70.40
11647;DHT22;5880;52.342;9.662;2024-01-16T13:03:20;5.50;71.00
11647;DHT22;5880;52.342;9.662;2024-01-16T13:06:00;5.50;70.90
11647;DHT22;5880;52.342;9.662;2024-01-16T13:08:26;5.50;70.40
11647;DHT22;5880;52.342;9.662;2024-01-16T13:11:06;5.60;70.90
11647;DHT22;5880;52.342;9.662;2024-01-16T13:13:33;5.40;70.80
11647;DHT22;5880;52.342;9.662;2024-01-16T13:16:00;5.40;71.10
11647;DHT22;5880;52.342;9.662;2024-01-16T13:18:27;5.40;71.00
11647;DHT22;5880;52.342;9.662;2024-01-16T13:20:56;5.40;70.90
11647;DHT22;5880;52.342;9.662;2024-01-16T13:23:23;5.30;70.60
11647;DHT22;5880;52.342;9.662;2024-01-16T13:25:53;5.30;70.70
11647;DHT22;5880;52.342;9.662;2024-01-16T13:28:25;5.30;70.90
11647;DHT22;5880;52.342;9.662;2024-01-16T13:30:51;5.40;71.00
11647;DHT22;5880;52.342;9.662;2024-01-16T13:33:17;5.30;70.90
11647;DHT22;5880;52.342;9.662;2024-01-16T13:35:47;5.40;70.80
11647;DHT22;5880;52.342;9.662;2024-01-16T13:38:13;5.30;70.90
11647;DHT22;5880;52.342;9.662;2024-01-16T13:40:42;5.30;70.60
11647;DHT22;5880;52.342;9.662;2024-01-16T13:43:08;5.30;70.70
11647;DHT22;5880;52.342;9.662;2024-01-16T13:45:34;5.30;70.40
11647;DHT22;5880;52.342;9.662;2024-01-16T13:48:01;5.30;70.70
11647;DHT22;5880;52.342;9.662;2024-01-16T13:50:28;5.20;71.00
11647;DHT22;5880;52.342;9.662;2024-01-16T13:52:53;5.20;71.00
11647;DHT22;5880;52.342;9.662;2024-01-16T13:55:20;5.20;70.20
11647;DHT22;5880;52.342;9.662;2024-01-16T13:57:46;5.20;70.70
11647;DHT22;5880;52.342;9.662;2024-01-16T14:00:13;5.20;70.70
11647;DHT22;5880;52.342;9.662;2024-01-16T14:02:41;5.20;70.70
11647;DHT22;5880;52.342;9.662;2024-01-16T14:05:18;5.20;70.60
11647;DHT22;5880;52.342;9.662;2024-01-16T14:07:46;5.10;70.20
11647;DHT22;5880;52.342;9.662;2024-01-16T14:10:14;5.20;70.80
11647;DHT22;5880;52.342;9.662;2024-01-16T14:12:40;5.10;70.50
11647;DHT22;5880;52.342;9.662;2024-01-16T14:15:14;5.10;70.60
11647;DHT22;5880;52.342;9.662;2024-01-16T14:17:55;5.10;70.50
11647;DHT22;5880;52.342;9.662;2024-01-16T14:20:23;5.10;70.50
11647;DHT22;5880;52.342;9.662;2024-01-16T14:22:51;5.00;70.30
11647;DHT22;5880;52.342;9.662;2024-01-16T14:25:20;5.00;70.40
11647;DHT22;5880;52.342;9.662;2024-01-16T14:27:55;5.00;70.50
11647;DHT22;5880;52.342;9.662;2024-01-16T14:30:23;4.90;70.50
11647;DHT22;5880;52.342;9.662;2024-01-16T14:32:50;4.90;70.80
11647;DHT22;5880;52.342;9.662;2024-01-16T14:35:16;4.90;70.90
11647;DHT22;5880;52.342;9.662;2024-01-16T14:37:43;4.90;71.00
11647;DHT22;5880;52.342;9.662;2024-01-16T14:40:10;4.90;71.00
11647;DHT22;5880;52.342;9.662;2024-01-16T14:42:48;4.90;71.20
11647;DHT22;5880;52.342;9.662;2024-01-16T14:45:17;4.90;71.20
11647;DHT22;5880;52.342;9.662;2024-01-16T14:47:43;4.90;71.30
11647;DHT22;5880;52.342;9.662;2024-01-16T14:50:11;5.00;71.30
11647;DHT22;5880;52.342;9.662;2024-01-16T14:52:38;5.00;71.10
11647;DHT22;5880;52.342;9.662;2024-01-16T14:55:05;5.00;70.90
11647;DHT22;5880;52.342;9.662;2024-01-16T14:57:35;5.00;70.60
11647;DHT22;5880;52.342;9.662;2024-01-16T15:00:11;5.00;70.80
11647;DHT22;5880;52.342;9.662;2024-01-16T15:02:43;5.00;70.80
11647;DHT22;5880;52.342;9.662;2024-01-16T15:05:09;5.00;70.80
11647;DHT22;5880;52.342;9.662;2024-01-16T15:07:35;5.10;71.00
11647;DHT22;5880;52.342;9.662;2024-01-16T15:10:04;5.00;70.90
11647;DHT22;5880;52.342;9.662;2024-01-16T15:12:31;5.00;70.80
11647;DHT22;5880;52.342;9.662;2024-01-16T15:14:57;5.00;70.80
11647;DHT22;5880;52.342;9.662;2024-01-16T15:17:22;5.00;70.80
11647;DHT22;5880;52.342;9.662;2024-01-16T15:19:48;5.00;70.50
11647;DHT22;5880;52.342;9.662;2024-01-16T15:22:13;4.90;70.50
11647;DHT22;5880;52.342;9.662;2024-01-16T15:24:39;4.90;70.40
11647;DHT22;5880;52.342;9.662;2024-01-16T15:27:05;4.80;70.30
11647;DHT22;5880;52.342;9.662;2024-01-16T15:29:31;4.80;70.30
11647;DHT22;5880;52.342;9.662;2024-01-16T15:31:57;4.80;70.40
11647;DHT22;5880;52.342;9.662;2024-01-16T15:34:23;4.70;70.60
11647;DHT22;5880;52.342;9.662;2024-01-16T15:36:48;4.70;70.70
11647;DHT22;5880;52.342;9.662;2024-01-16T15:39:14;4.60;70.60
11647;DHT22;5880;52.342;9.662;2024-01-16T15:41:41;4.60;70.50
11647;DHT22;5880;52.342;9.662;2024-01-16T15:44:08;4.60;70.60
11647;DHT22;5880;52.342;9.662;2024-01-16T15:46:52;4.50;70.70
11647;DHT22;5880;52.342;9.662;2024-01-16T15:49:18;4.50;70.70
11647;DHT22;5880;52.342;9.662;2024-01-16T15:51:44;4.50;70.80
11647;DHT22;5880;52.342;9.662;2024-01-16T15:54:12;4.50;70.70
11647;DHT22;5880;52.342;9.662;2024-01-16T15:56:38;4.40;70.40
11647;DHT22;5880;52.342;9.662;2024-01-16T15:59:04;4.40;70.50
11647;DHT22;5880;52.342;9.662;2024-01-16T16:01:30;4.30;70.50
11647;DHT22;5880;52.342;9.662;2024-01-16T16:03:57;4.30;70.70
11647;DHT22;5880;52.342;9.662;2024-01-16T16:06:23;4.30;70.80
11647;DHT22;5880;52.342;9.662;2024-01-16T16:08:49;4.20;70.80
11647;DHT22;5880;52.342;9.662;2024-01-16T16:11:14;4.20;70.90
11647;DHT22;5880;52.342;9.662;2024-01-16T16:13:42;4.20;71.10